sensor_id;sensor_type;location;lat;lon;timestamp;pressure;altitude;pressure_sealevel;temperature;humidity
76424;BME280;65257;52.104;4.268;2023-07-20T00:00:05;102110.44;;;16.06;100.00
76424;BME280;65257;52.104;4.268;2023-07-20T00:02:30;102103.31;;;15.99;100.00
76424;BME280;65257;52.104;4.268;2023-07-20T00:04:56;102088.50;;;15.93;100.00
76424;BME280;65257;52.104;4.268;2023-07-20T00:07:21;102081.53;;;15.91;100.00
76424;BME280;65257;52.104;4.268;2023-07-20T00:09:47;102070.28;;;15.89;100.00
76424;BME280;65257;52.104;4.268;2023-07-20T00:12:13;102048.25;;;16.00;100.00
76424;BME280;65257;52.104;4.268;2023-07-20T00:14:39;102042.81;;;15.91;100.00
76424;BME280;65257;52.104;4.268;2023-07-20T00:17:13;102029.25;;;15.98;100.00
76424;BME280;65257;52.104;4.268;2023-07-20T00:19:38;102031.75;;;15.95;100.00
76424;BME280;65257;52.104;4.268;2023-07-20T00:22:07;102030.72;;;15.90;100.00
76424;BME280;65257;52.104;4.268;2023-07-20T00:24:34;102022.16;;;15.91;100.00
76424;BME280;65257;52.104;4.268;2023-07-20T00:27:03;102023.91;;;15.92;100.00
76424;BME280;65257;52.104;4.268;2023-07-20T00:29:32;102018.81;;;15.95;100.00
76424;BME280;65257;52.104;4.268;2023-07-20T00:31:58;102014.44;;;15.92;100.00
76424;BME280;65257;52.104;4.268;2023-07-20T00:34:24;102019.56;;;15.91;100.00
76424;BME280;65257;52.104;4.268;2023-07-20T00:36:50;102022.06;;;15.88;100.00
76424;BME280;65257;52.104;4.268;2023-07-20T00:39:15;102020.31;;;15.87;100.00
76424;BME280;65257;52.104;4.268;2023-07-20T00:41:43;102020.09;;;15.81;100.00
76424;BME280;65257;52.104;4.268;2023-07-20T00:44:12;102018.44;;;15.83;100.00
76424;BME280;65257;52.104;4.268;2023-07-20T00:46:37;102019.31;;;15.83;100.00
76424;BME280;65257;52.104;4.268;2023-07-20T00:49:03;102027.03;;;15.82;100.00
76424;BME280;65257;52.104;4.268;2023-07-20T00:51:32;102018.56;;;15.86;100.00
76424;BME280;65257;52.104;4.268;2023-07-20T00:54:01;102021.09;;;15.84;100.00
76424;BME280;65257;52.104;4.268;2023-07-20T00:56:28;102011.63;;;15.85;100.00
76424;BME280;65257;52.104;4.268;2023-07-20T00:58:53;102011.72;;;15.88;100.00
76424;BME280;65257;52.104;4.268;2023-07-20T01:01:19;102018.69;;;15.90;100.00
76424;BME280;65257;52.104;4.268;2023-07-20T01:03:45;102018.81;;;15.95;100.00
76424;BME280;65257;52.104;4.268;2023-07-20T01:06:25;102015.53;;;15.99;100.00
76424;BME280;65257;52.104;4.268;2023-07-20T01:09:02;102013.00;;;16.00;100.00
76424;BME280;65257;52.104;4.268;2023-07-20T01:14:11;102015.91;;;16.11;100.00
76424;BME280;65257;52.104;4.268;2023-07-20T01:16:37;102019.34;;;16.10;100.00
76424;BME280;65257;52.104;4.268;2023-07-20T01:19:03;102022.75;;;16.09;100.00
76424;BME280;65257;52.104;4.268;2023-07-20T01:22:03;102019.91;;;16.01;100.00
76424;BME280;65257;52.104;4.268;2023-07-20T01:34:05;102017.38;;;16.03;100.00
76424;BME280;65257;52.104;4.268;2023-07-20T01:36:37;102018.16;;;16.00;100.00
76424;BME280;65257;52.104;4.268;2023-07-20T01:39:03;102019.81;;;15.98;100.00
76424;BME280;65257;52.104;4.268;2023-07-20T01:41:33;102014.69;;;16.00;100.00
76424;BME280;65257;52.104;4.268;2023-07-20T01:43:59;102006.78;;;15.94;100.00
76424;BME280;65257;52.104;4.268;2023-07-20T01:46:24;102005.00;;;15.93;100.00
76424;BME280;65257;52.104;4.268;2023-07-20T01:48:50;102001.50;;;15.91;100.00
76424;BME280;65257;52.104;4.268;2023-07-20T01:51:19;101997.91;;;15.86;100.00
76424;BME280;65257;52.104;4.268;2023-07-20T01:53:44;101987.59;;;15.87;100.00
76424;BME280;65257;52.104;4.268;2023-07-20T01:56:10;101994.56;;;15.90;100.00
76424;BME280;65257;52.104;4.268;2023-07-20T01:59:30;101989.41;;;15.90;100.00
76424;BME280;65257;52.104;4.268;2023-07-20T02:01:59;101993.88;;;15.94;100.00
76424;BME280;65257;52.104;4.268;2023-07-20T02:04:24;101990.63;;;16.01;100.00
76424;BME280;65257;52.104;4.268;2023-07-20T02:06:52;101991.44;;;16.00;100.00
76424;BME280;65257;52.104;4.268;2023-07-20T02:09:18;101992.94;;;15.92;100.00
76424;BME280;65257;52.104;4.268;2023-07-20T02:11:43;101986.00;;;15.91;100.00
76424;BME280;65257;52.104;4.268;2023-07-20T02:14:09;101981.75;;;15.91;100.00
76424;BME280;65257;52.104;4.268;2023-07-20T02:16:34;101982.22;;;15.80;100.00
76424;BME280;65257;52.104;4.268;2023-07-20T02:18:59;101971.81;;;15.77;100.00
76424;BME280;65257;52.104;4.268;2023-07-20T02:21:32;101958.97;;;15.80;100.00
76424;BME280;65257;52.104;4.268;2023-07-20T02:23:58;101969.53;;;15.87;100.00
76424;BME280;65257;52.104;4.268;2023-07-20T02:26:23;101972.28;;;15.92;100.00
76424;BME280;65257;52.104;4.268;2023-07-20T02:28:49;101970.25;;;15.82;100.00
76424;BME280;65257;52.104;4.268;2023-07-20T02:31:17;101951.16;;;15.77;100.00
76424;BME280;65257;52.104;4.268;2023-07-20T02:33:43;101959.94;;;15.82;100.00
76424;BME280;65257;52.104;4.268;2023-07-20T02:36:08;101953.09;;;15.84;100.00
76424;BME280;65257;52.104;4.268;2023-07-20T02:38:39;101961.75;;;15.86;100.00
76424;BME280;65257;52.104;4.268;2023-07-20T02:41:05;101961.88;;;15.89;100.00
76424;BME280;65257;52.104;4.268;2023-07-20T02:43:31;101970.63;;;15.94;100.00
76424;BME280;65257;52.104;4.268;2023-07-20T02:46:01;101967.91;;;15.89;100.00
76424;BME280;65257;52.104;4.268;2023-07-20T02:48:32;101973.84;;;15.87;100.00
76424;BME280;65257;52.104;4.268;2023-07-20T02:51:01;101970.16;;;15.79;100.00
76424;BME280;65257;52.104;4.268;2023-07-20T02:53:29;101962.34;;;15.77;100.00
76424;BME280;65257;52.104;4.268;2023-07-20T02:55:55;101955.53;;;15.79;100.00
76424;BME280;65257;52.104;4.268;2023-07-20T02:58:23;101964.06;;;15.77;100.00
76424;BME280;65257;52.104;4.268;2023-07-20T03:00:48;101963.13;;;15.75;100.00
76424;BME280;65257;52.104;4.268;2023-07-20T03:03:14;101963.13;;;15.75;100.00
76424;BME280;65257;52.104;4.268;2023-07-20T03:05:43;101966.66;;;15.77;100.00
76424;BME280;65257;52.104;4.268;2023-07-20T03:08:09;101966.72;;;15.80;100.00
76424;BME280;65257;52.104;4.268;2023-07-20T03:10:41;101969.31;;;15.80;100.00
76424;BME280;65257;52.104;4.268;2023-07-20T03:13:07;101975.31;;;15.79;100.00
76424;BME280;65257;52.104;4.268;2023-07-20T03:15:32;101977.81;;;15.77;100.00
76424;BME280;65257;52.104;4.268;2023-07-20T03:17:58;101974.41;;;15.77;100.00
76424;BME280;65257;52.104;4.268;2023-07-20T03:20:24;101973.44;;;15.75;100.00
76424;BME280;65257;52.104;4.268;2023-07-20T03:22:49;101973.34;;;15.72;100.00
76424;BME280;65257;52.104;4.268;2023-07-20T03:25:15;101971.81;;;15.77;100.00
76424;BME280;65257;52.104;4.268;2023-07-20T03:27:40;101983.06;;;15.79;100.00
76424;BME280;65257;52.104;4.268;2023-07-20T03:30:10;101975.25;;;15.77;100.00
76424;BME280;65257;52.104;4.268;2023-07-20T03:32:39;101973.53;;;15.78;100.00
76424;BME280;65257;52.104;4.268;2023-07-20T03:35:09;101973.75;;;15.84;100.00
76424;BME280;65257;52.104;4.268;2023-07-20T03:37:34;101977.03;;;15.80;100.00
76424;BME280;65257;52.104;4.268;2023-07-20T03:40:07;101977.94;;;15.80;100.00
76424;BME280;65257;52.104;4.268;2023-07-20T03:42:33;101973.84;;;15.87;100.00
76424;BME280;65257;52.104;4.268;2023-07-20T03:45:08;101977.03;;;15.80;100.00
76424;BME280;65257;52.104;4.268;2023-07-20T03:47:40;101973.63;;;15.79;100.00
76424;BME280;65257;52.104;4.268;2023-07-20T03:50:06;101973.53;;;15.78;100.00
76424;BME280;65257;52.104;4.268;2023-07-20T03:52:37;101978.47;;;15.97;100.00
76424;BME280;65257;52.104;4.268;2023-07-20T03:55:10;101980.97;;;15.94;100.00
76424;BME280;65257;52.104;4.268;2023-07-20T03:57:38;101968.81;;;15.91;100.00
76424;BME280;65257;52.104;4.268;2023-07-20T04:00:07;101975.69;;;15.91;100.00
76424;BME280;65257;52.104;4.268;2023-07-20T04:02:37;101973.94;;;15.90;100.00
76424;BME280;65257;52.104;4.268;2023-07-20T04:05:06;101977.34;;;15.89;100.00
76424;BME280;65257;52.104;4.268;2023-07-20T04:07:32;101977.34;;;15.89;100.00
76424;BME280;65257;52.104;4.268;2023-07-20T04:09:57;101967.81;;;15.86;100.00
76424;BME280;65257;52.104;4.268;2023-07-20T04:12:23;101965.16;;;15.85;100.00
76424;BME280;65257;52.104;4.268;2023-07-20T04:14:54;101960.94;;;15.87;100.00
76424;BME280;65257;52.104;4.268;2023-07-20T04:17:22;101965.25;;;15.88;100.00
76424;BME280;65257;52.104;4.268;2023-07-20T04:19:48;101959.16;;;15.84;100.00
76424;BME280;65257;52.104;4.268;2023-07-20T04:22:13;101956.50;;;15.83;100.00
76424;BME280;65257;52.104;4.268;2023-07-20T04:24:42;101957.53;;;15.88;100.00
76424;BME280;65257;52.104;4.268;2023-07-20T04:27:07;101955.03;;;15.91;100.00
76424;BME280;65257;52.104;4.268;2023-07-20T04:29:38;101955.84;;;15.90;100.00
76424;BME280;65257;52.104;4.268;2023-07-20T04:32:04;101956.88;;;15.95;100.00
76424;BME280;65257;52.104;4.268;2023-07-20T04:34:30;101944.13;;;15.99;100.00
76424;BME280;65257;52.104;4.268;2023-07-20T04:36:58;101946.94;;;16.07;100.00
76424;BME280;65257;52.104;4.268;2023-07-20T04:39:27;101928.03;;;16.08;100.00
76424;BME280;65257;52.104;4.268;2023-07-20T04:41:52;101931.63;;;16.13;100.00
76424;BME280;65257;52.104;4.268;2023-07-20T04:44:17;101913.59;;;16.14;100.00
76424;BME280;65257;52.104;4.268;2023-07-20T04:46:43;101915.34;;;16.15;100.00
76424;BME280;65257;52.104;4.268;2023-07-20T04:49:08;101901.75;;;16.21;100.00
76424;BME280;65257;52.104;4.268;2023-07-20T04:51:36;101879.19;;;16.15;100.00
76424;BME280;65257;52.104;4.268;2023-07-20T04:54:02;101884.56;;;16.23;100.00
76424;BME280;65257;52.104;4.268;2023-07-20T04:56:27;101878.69;;;16.27;100.00
76424;BME280;65257;52.104;4.268;2023-07-20T04:58:53;101867.69;;;16.34;100.00
76424;BME280;65257;52.104;4.268;2023-07-20T05:01:21;101854.94;;;16.40;100.00
76424;BME280;65257;52.104;4.268;2023-07-20T05:03:47;101845.16;;;16.58;100.00
76424;BME280;65257;52.104;4.268;2023-07-20T05:06:12;101837.78;;;17.08;100.00
76424;BME280;65257;52.104;4.268;2023-07-20T05:08:38;101793.41;;;17.61;100.00
76424;BME280;65257;52.104;4.268;2023-07-20T05:11:04;101753.50;;;17.93;100.00
76424;BME280;65257;52.104;4.268;2023-07-20T05:13:30;101621.59;;;18.02;100.00
76424;BME280;65257;52.104;4.268;2023-07-20T05:15:55;101605.56;;;18.25;100.00
76424;BME280;65257;52.104;4.268;2023-07-20T05:18:20;101587.94;;;18.05;100.00
76424;BME280;65257;52.104;4.268;2023-07-20T05:20:48;101584.66;;;18.15;100.00
76424;BME280;65257;52.104;4.268;2023-07-20T05:23:15;101579.34;;;18.60;100.00
76424;BME280;65257;52.104;4.268;2023-07-20T05:25:41;101570.53;;;19.12;100.00
76424;BME280;65257;52.104;4.268;2023-07-20T05:28:06;101547.31;;;19.23;100.00
76424;BME280;65257;52.104;4.268;2023-07-20T05:30:33;101562.28;;;19.44;100.00
76424;BME280;65257;52.104;4.268;2023-07-20T05:32:58;101553.09;;;18.99;100.00
76424;BME280;65257;52.104;4.268;2023-07-20T05:35:25;101556.50;;;18.97;100.00
76424;BME280;65257;52.104;4.268;2023-07-20T05:37:54;101549.09;;;18.59;100.00
76424;BME280;65257;52.104;4.268;2023-07-20T05:40:22;101551.66;;;18.58;100.00
76424;BME280;65257;52.104;4.268;2023-07-20T05:43:06;101549.47;;;18.28;100.00
76424;BME280;65257;52.104;4.268;2023-07-20T05:45:34;101545.63;;;18.03;100.00
76424;BME280;65257;52.104;4.268;2023-07-20T05:48:00;101550.22;;;17.69;100.00
76424;BME280;65257;52.104;4.268;2023-07-20T05:50:25;101533.56;;;17.53;100.00
76424;BME280;65257;52.104;4.268;2023-07-20T05:52:54;101542.63;;;17.33;100.00
76424;BME280;65257;52.104;4.268;2023-07-20T05:55:28;101541.78;;;17.34;100.00
76424;BME280;65257;52.104;4.268;2023-07-20T05:57:53;101540.38;;;17.51;100.00
76424;BME280;65257;52.104;4.268;2023-07-20T06:00:27;101537.09;;;17.58;100.00
76424;BME280;65257;52.104;4.268;2023-07-20T06:02:53;101538.19;;;17.72;100.00
76424;BME280;65257;52.104;4.268;2023-07-20T06:05:20;101535.28;;;17.54;100.00
76424;BME280;65257;52.104;4.268;2023-07-20T06:07:47;101531.50;;;17.37;100.00
76424;BME280;65257;52.104;4.268;2023-07-20T06:10:16;101541.00;;;17.38;100.00
76424;BME280;65257;52.104;4.268;2023-07-20T06:12:44;101545.25;;;17.36;100.00
76424;BME280;65257;52.104;4.268;2023-07-20T06:15:32;101547.97;;;17.42;100.00
76424;BME280;65257;52.104;4.268;2023-07-20T06:18:04;101549.75;;;17.44;100.00
76424;BME280;65257;52.104;4.268;2023-07-20T06:20:29;101554.97;;;17.47;100.00
76424;BME280;65257;52.104;4.268;2023-07-20T06:22:55;101552.69;;;17.61;100.00
76424;BME280;65257;52.104;4.268;2023-07-20T06:25:28;101559.44;;;17.53;100.00
76424;BME280;65257;52.104;4.268;2023-07-20T06:27:55;101560.16;;;17.49;100.00
76424;BME280;65257;52.104;4.268;2023-07-20T06:30:20;101551.88;;;17.65;100.00
76424;BME280;65257;52.104;4.268;2023-07-20T06:32:46;101561.84;;;18.46;100.00
76424;BME280;65257;52.104;4.268;2023-07-20T06:35:11;101567.31;;;18.64;100.00
76424;BME280;65257;52.104;4.268;2023-07-20T06:37:37;101572.50;;;19.34;100.00
76424;BME280;65257;52.104;4.268;2023-07-20T06:40:05;101576.38;;;19.70;100.00
76424;BME280;65257;52.104;4.268;2023-07-20T06:42:34;101559.50;;;20.20;100.00
76424;BME280;65257;52.104;4.268;2023-07-20T06:44:59;101441.22;;;21.19;100.00
76424;BME280;65257;52.104;4.268;2023-07-20T06:47:29;101487.13;;;21.02;100.00
76424;BME280;65257;52.104;4.268;2023-07-20T06:49:54;101510.59;;;21.09;100.00
76424;BME280;65257;52.104;4.268;2023-07-20T06:52:20;101507.16;;;22.57;100.00
76424;BME280;65257;52.104;4.268;2023-07-20T06:54:46;101512.19;;;23.02;100.00
76424;BME280;65257;52.104;4.268;2023-07-20T06:57:11;101520.97;;;22.80;100.00
76424;BME280;65257;52.104;4.268;2023-07-20T06:59:37;101515.88;;;22.42;100.00
76424;BME280;65257;52.104;4.268;2023-07-20T07:02:12;101522.84;;;22.39;100.00
76424;BME280;65257;52.104;4.268;2023-07-20T07:04:38;101528.97;;;22.02;100.00
76424;BME280;65257;52.104;4.268;2023-07-20T07:07:06;101530.31;;;20.60;100.00
76424;BME280;65257;52.104;4.268;2023-07-20T07:09:42;101528.50;;;20.47;100.00
76424;BME280;65257;52.104;4.268;2023-07-20T07:12:08;101525.72;;;20.20;100.00
76424;BME280;65257;52.104;4.268;2023-07-20T07:14:34;101530.28;;;20.51;100.00
76424;BME280;65257;52.104;4.268;2023-07-20T07:17:00;101532.22;;;21.01;100.00
76424;BME280;65257;52.104;4.268;2023-07-20T07:19:29;101532.41;;;21.70;100.00
76424;BME280;65257;52.104;4.268;2023-07-20T07:21:54;101534.84;;;22.96;100.00
76424;BME280;65257;52.104;4.268;2023-07-20T07:24:23;101540.38;;;23.86;100.00
76424;BME280;65257;52.104;4.268;2023-07-20T07:26:49;101539.50;;;23.93;100.00
76424;BME280;65257;52.104;4.268;2023-07-20T07:29:22;101547.16;;;24.14;100.00
76424;BME280;65257;52.104;4.268;2023-07-20T07:31:51;101538.34;;;24.25;100.00
76424;BME280;65257;52.104;4.268;2023-07-20T07:34:21;101540.72;;;24.48;100.00
76424;BME280;65257;52.104;4.268;2023-07-20T07:36:53;101539.03;;;24.44;100.00
76424;BME280;65257;52.104;4.268;2023-07-20T07:39:22;101539.97;;;24.36;100.00
76424;BME280;65257;52.104;4.268;2023-07-20T07:41:50;101538.56;;;23.98;100.00
76424;BME280;65257;52.104;4.268;2023-07-20T07:44:17;101544.91;;;24.63;100.00
76424;BME280;65257;52.104;4.268;2023-07-20T07:46:52;101551.41;;;25.06;100.00
76424;BME280;65257;52.104;4.268;2023-07-20T07:49:18;101549.72;;;25.01;100.00
76424;BME280;65257;52.104;4.268;2023-07-20T07:51:45;101546.78;;;25.26;100.00
76424;BME280;65257;52.104;4.268;2023-07-20T07:54:10;101550.34;;;25.79;100.00
76424;BME280;65257;52.104;4.268;2023-07-20T07:56:36;101550.84;;;25.48;100.00
76424;BME280;65257;52.104;4.268;2023-07-20T07:59:01;101545.09;;;25.79;100.00
76424;BME280;65257;52.104;4.268;2023-07-20T08:01:28;101546.22;;;25.64;100.00
76424;BME280;65257;52.104;4.268;2023-07-20T08:03:58;101548.94;;;26.11;100.00
76424;BME280;65257;52.104;4.268;2023-07-20T08:06:26;101551.25;;;25.78;100.00
76424;BME280;65257;52.104;4.268;2023-07-20T08:08:53;101552.19;;;25.75;100.00
76424;BME280;65257;52.104;4.268;2023-07-20T08:11:18;101553.69;;;25.30;100.00
76424;BME280;65257;52.104;4.268;2023-07-20T08:13:47;101560.78;;;25.22;100.00
76424;BME280;65257;52.104;4.268;2023-07-20T08:16:13;101551.09;;;25.27;100.00
76424;BME280;65257;52.104;4.268;2023-07-20T08:18:39;101550.22;;;25.28;100.00
76424;BME280;65257;52.104;4.268;2023-07-20T08:21:04;101544.78;;;24.75;100.00
76424;BME280;65257;52.104;4.268;2023-07-20T08:23:33;101551.41;;;25.06;100.00
76424;BME280;65257;52.104;4.268;2023-07-20T08:25:58;101550.69;;;24.04;100.00
76424;BME280;65257;52.104;4.268;2023-07-20T08:28:30;101543.53;;;25.08;100.00
76424;BME280;65257;52.104;4.268;2023-07-20T08:30:55;101558.97;;;25.29;100.00
76424;BME280;65257;52.104;4.268;2023-07-20T08:33:27;101566.59;;;25.42;100.00
76424;BME280;65257;52.104;4.268;2023-07-20T08:35:55;101573.09;;;25.80;100.00
76424;BME280;65257;52.104;4.268;2023-07-20T08:38:21;101573.09;;;25.80;100.00
76424;BME280;65257;52.104;4.268;2023-07-20T08:40:48;101573.22;;;25.71;100.00
76424;BME280;65257;52.104;4.268;2023-07-20T08:43:17;101563.63;;;25.68;100.00
76424;BME280;65257;52.104;4.268;2023-07-20T08:45:46;101564.00;;;26.00;100.00
76424;BME280;65257;52.104;4.268;2023-07-20T08:48:18;101570.91;;;26.06;100.00
76424;BME280;65257;52.104;4.268;2023-07-20T08:50:45;101572.56;;;26.13;100.00
76424;BME280;65257;52.104;4.268;2023-07-20T08:53:12;101574.34;;;25.53;100.00
76424;BME280;65257;52.104;4.268;2023-07-20T08:55:39;101576.97;;;25.55;100.00
76424;BME280;65257;52.104;4.268;2023-07-20T08:58:08;101579.16;;;25.83;100.00
76424;BME280;65257;52.104;4.268;2023-07-20T09:00:43;101579.56;;;26.14;100.00
76424;BME280;65257;52.104;4.268;2023-07-20T09:03:12;101584.94;;;26.02;100.00
76424;BME280;65257;52.104;4.268;2023-07-20T09:05:44;101578.19;;;26.41;100.00
76424;BME280;65257;52.104;4.268;2023-07-20T09:08:09;101576.41;;;25.91;100.00
76424;BME280;65257;52.104;4.268;2023-07-20T09:10:34;101576.41;;;25.91;100.00
76424;BME280;65257;52.104;4.268;2023-07-20T09:13:04;101578.13;;;25.92;100.00
76424;BME280;65257;52.104;4.268;2023-07-20T09:15:30;101581.81;;;26.32;100.00
76424;BME280;65257;52.104;4.268;2023-07-20T09:18:06;101574.94;;;25.72;100.00
76424;BME280;65257;52.104;4.268;2023-07-20T09:20:33;101576.34;;;25.94;100.00
76424;BME280;65257;52.104;4.268;2023-07-20T09:23:05;101575.59;;;25.87;100.00
76424;BME280;65257;52.104;4.268;2023-07-20T09:25:43;101570.06;;;25.47;100.00
76424;BME280;65257;52.104;4.268;2023-07-20T09:28:08;101573.63;;;24.72;100.00
76424;BME280;65257;52.104;4.268;2023-07-20T09:30:33;101569.78;;;25.03;100.00
76424;BME280;65257;52.104;4.268;2023-07-20T09:32:59;101575.78;;;26.27;100.00
76424;BME280;65257;52.104;4.268;2023-07-20T09:35:25;101575.38;;;25.99;100.00
76424;BME280;65257;52.104;4.268;2023-07-20T09:40:22;101573.81;;;26.41;100.00
76424;BME280;65257;52.104;4.268;2023-07-20T09:42:55;101574.41;;;26.05;100.00
76424;BME280;65257;52.104;4.268;2023-07-20T09:45:34;101572.56;;;26.13;100.00
76424;BME280;65257;52.104;4.268;2023-07-20T09:48:10;101586.03;;;27.31;100.00
76424;BME280;65257;52.104;4.268;2023-07-20T09:50:49;101591.34;;;27.28;100.00
76424;BME280;65257;52.104;4.268;2023-07-20T09:53:35;101593.19;;;28.00;100.00
76424;BME280;65257;52.104;4.268;2023-07-20T09:56:02;101591.72;;;27.10;100.00
76424;BME280;65257;52.104;4.268;2023-07-20T09:58:28;101594.63;;;25.37;100.00
76424;BME280;65257;52.104;4.268;2023-07-20T10:00:59;101591.22;;;26.45;100.00
76424;BME280;65257;52.104;4.268;2023-07-20T10:03:29;101587.53;;;25.48;100.00
76424;BME280;65257;52.104;4.268;2023-07-20T10:06:06;101595.75;;;26.37;100.00
76424;BME280;65257;52.104;4.268;2023-07-20T10:09:03;101597.06;;;26.12;100.00
76424;BME280;65257;52.104;4.268;2023-07-20T10:11:35;101586.13;;;25.84;100.00
76424;BME280;65257;52.104;4.268;2023-07-20T10:14:03;101590.63;;;27.20;100.00
76424;BME280;65257;52.104;4.268;2023-07-20T10:16:35;101588.00;;;26.31;100.00
76424;BME280;65257;52.104;4.268;2023-07-20T10:21:57;101587.66;;;25.39;100.00
76424;BME280;65257;52.104;4.268;2023-07-20T10:24:26;101587.88;;;25.84;100.00
76424;BME280;65257;52.104;4.268;2023-07-20T10:26:56;101584.31;;;25.86;100.00
76424;BME280;65257;52.104;4.268;2023-07-20T10:29:22;101583.69;;;25.71;100.00
76424;BME280;65257;52.104;4.268;2023-07-20T10:31:54;101580.53;;;26.05;100.00
76424;BME280;65257;52.104;4.268;2023-07-20T10:34:23;101591.63;;;25.66;100.00
76424;BME280;65257;52.104;4.268;2023-07-20T10:36:51;101592.84;;;24.68;100.00
76424;BME280;65257;52.104;4.268;2023-07-20T10:39:31;101587.53;;;24.75;100.00
76424;BME280;65257;52.104;4.268;2023-07-20T10:42:07;101582.00;;;25.03;100.00
76424;BME280;65257;52.104;4.268;2023-07-20T10:44:39;101582.53;;;25.90;100.00
76424;BME280;65257;52.104;4.268;2023-07-20T10:47:11;101571.41;;;26.77;100.00
76424;BME280;65257;52.104;4.268;2023-07-20T10:49:59;101573.06;;;26.33;100.00
76424;BME280;65257;52.104;4.268;2023-07-20T10:52:38;101566.44;;;26.60;100.00
76424;BME280;65257;52.104;4.268;2023-07-20T10:55:16;101571.81;;;27.38;100.00
76424;BME280;65257;52.104;4.268;2023-07-20T10:57:42;101581.16;;;27.13;100.00
76424;BME280;65257;52.104;4.268;2023-07-20T11:00:13;101576.63;;;27.96;100.00
76424;BME280;65257;52.104;4.268;2023-07-20T11:02:53;101569.31;;;26.94;100.00
76424;BME280;65257;52.104;4.268;2023-07-20T11:05:46;101564.28;;;26.82;100.00
76424;BME280;65257;52.104;4.268;2023-07-20T11:08:39;101559.66;;;26.48;100.00
76424;BME280;65257;52.104;4.268;2023-07-20T11:11:44;101565.59;;;26.58;100.00
76424;BME280;65257;52.104;4.268;2023-07-20T11:14:24;101567.00;;;26.31;100.00
76424;BME280;65257;52.104;4.268;2023-07-20T11:16:54;101560.41;;;26.06;100.00
76424;BME280;65257;52.104;4.268;2023-07-20T11:19:43;101555.91;;;26.16;100.00
76424;BME280;65257;52.104;4.268;2023-07-20T11:22:09;101552.97;;;25.79;100.00
76424;BME280;65257;52.104;4.268;2023-07-20T11:24:38;101549.44;;;25.83;100.00
76424;BME280;65257;52.104;4.268;2023-07-20T11:27:04;101550.00;;;26.00;100.00
76424;BME280;65257;52.104;4.268;2023-07-20T11:29:37;101546.38;;;26.07;100.00
76424;BME280;65257;52.104;4.268;2023-07-20T11:32:06;101549.97;;;26.03;100.00
76424;BME280;65257;52.104;4.268;2023-07-20T11:34:34;101557.34;;;25.80;100.00
76424;BME280;65257;52.104;4.268;2023-07-20T11:37:00;101553.41;;;25.50;100.00
76424;BME280;65257;52.104;4.268;2023-07-20T11:39:25;101554.47;;;25.95;100.00
76424;BME280;65257;52.104;4.268;2023-07-20T11:42:00;101552.50;;;26.09;100.00
76424;BME280;65257;52.104;4.268;2023-07-20T11:44:35;101548.06;;;26.14;100.00
76424;BME280;65257;52.104;4.268;2023-07-20T11:47:05;101553.50;;;25.99;100.00
76424;BME280;65257;52.104;4.268;2023-07-20T11:49:38;101545.22;;;26.26;100.00
76424;BME280;65257;52.104;4.268;2023-07-20T11:52:13;101548.88;;;25.61;100.00
76424;BME280;65257;52.104;4.268;2023-07-20T11:54:43;101543.81;;;25.50;100.00
76424;BME280;65257;52.104;4.268;2023-07-20T11:57:17;101542.53;;;26.29;100.00
76424;BME280;65257;52.104;4.268;2023-07-20T12:00:01;101536.16;;;26.42;100.00
76424;BME280;65257;52.104;4.268;2023-07-20T12:02:29;101543.66;;;26.16;100.00
76424;BME280;65257;52.104;4.268;2023-07-20T12:05:06;101539.91;;;26.73;100.00
76424;BME280;65257;52.104;4.268;2023-07-20T12:07:41;101540.56;;;26.40;100.00
76424;BME280;65257;52.104;4.268;2023-07-20T12:10:11;101538.41;;;26.16;100.00
76424;BME280;65257;52.104;4.268;2023-07-20T12:12:41;101537.47;;;26.17;100.00
76424;BME280;65257;52.104;4.268;2023-07-20T12:15:23;101538.81;;;25.90;100.00
76424;BME280;65257;52.104;4.268;2023-07-20T12:17:51;101531.72;;;25.37;100.00
76424;BME280;65257;52.104;4.268;2023-07-20T12:20:37;101541.97;;;25.56;100.00
76424;BME280;65257;52.104;4.268;2023-07-20T12:26:33;101537.91;;;25.33;100.00
76424;BME280;65257;52.104;4.268;2023-07-20T12:28:59;101536.25;;;25.28;100.00
76424;BME280;65257;52.104;4.268;2023-07-20T12:31:33;101531.69;;;25.40;100.00
76424;BME280;65257;52.104;4.268;2023-07-20T12:33:59;101536.31;;;24.52;100.00
76424;BME280;65257;52.104;4.268;2023-07-20T12:36:38;101531.03;;;25.26;100.00
76424;BME280;65257;52.104;4.268;2023-07-20T12:39:06;101539.97;;;25.12;100.00
76424;BME280;65257;52.104;4.268;2023-07-20T12:41:35;101544.91;;;24.63;100.00
76424;BME280;65257;52.104;4.268;2023-07-20T12:44:02;101537.91;;;24.65;100.00
76424;BME280;65257;52.104;4.268;2023-07-20T12:46:28;101536.19;;;24.64;100.00
76424;BME280;65257;52.104;4.268;2023-07-20T12:48:54;101538.47;;;24.07;100.00
76424;BME280;65257;52.104;4.268;2023-07-20T12:51:19;101532.81;;;24.53;100.00
76424;BME280;65257;52.104;4.268;2023-07-20T12:53:47;101530.91;;;24.67;100.00
76424;BME280;65257;52.104;4.268;2023-07-20T12:56:15;101520.50;;;24.61;100.00
76424;BME280;65257;52.104;4.268;2023-07-20T12:58:43;101525.97;;;24.40;100.00
76424;BME280;65257;52.104;4.268;2023-07-20T13:01:11;101516.47;;;24.29;100.00
76424;BME280;65257;52.104;4.268;2023-07-20T13:03:39;101518.25;;;24.29;100.00
76424;BME280;65257;52.104;4.268;2023-07-20T13:06:08;101514.03;;;24.14;100.00
76424;BME280;65257;52.104;4.268;2023-07-20T13:08:40;101512.34;;;24.04;100.00
76424;BME280;65257;52.104;4.268;2023-07-20T13:11:08;101508.03;;;23.99;100.00